Time;durP1;ratioP1;P1;durP2;ratioP2;P2;SDS_P1;SDS_P2;PMS_P1;PMS_P2;Temp;Humidity;BMP_temperature;BMP_pressure;BME280_temperature;BME280_humidity;BME280_pressure;Samples;Min_cycle;Max_cycle;Signal;HPM_P1;HPM_P2
2022/01/02 00:01:53;;;;;;;;;;;12.00;99.90;;;;;;5037968;28;19928;-90
2022/01/02 00:04:21;;;;;;;;;;;11.80;99.90;;;;;;5039888;28;20019;-90
2022/01/02 00:06:50;;;;;;;;;;;11.80;99.90;;;;;;5050034;28;19925;-90
2022/01/02 00:09:24;;;;;;;;;;;11.70;99.90;;;;;;5049790;28;19921;-90
2022/01/02 00:11:51;;;;;;;;;;;11.80;99.90;;;;;;5047633;28;19968;-91
2022/01/02 00:14:22;;;;;;;;;;;11.90;99.90;;;;;;5037820;28;19921;-90
2022/01/02 00:16:51;;;;;;;;;;;12.20;99.90;;;;;;5038081;28;20015;-90
2022/01/02 00:19:27;;;;;;;;;;;12.00;99.90;;;;;;5037269;28;19928;-90
2022/01/02 00:21:58;;;;;;;;;;;12.00;99.90;;;;;;5037667;28;19921;-90
2022/01/02 00:24:26;;;;;;;;;;;12.10;99.90;;;;;;5037462;28;20283;-90
2022/01/02 00:26:54;;;;;;;;;;;11.80;99.90;;;;;;5037303;28;19921;-90
2022/01/02 00:29:21;;;;;;;;;;;11.90;99.90;;;;;;5037350;28;19975;-90
2022/01/02 00:31:49;;;;;;;;;;;12.00;99.90;;;;;;5037370;28;19928;-90
2022/01/02 00:34:16;;;;;;;;;;;12.60;99.90;;;;;;5037159;28;19924;-90
2022/01/02 00:36:43;;;;;;;;;;;11.90;99.90;;;;;;5037467;28;19921;-90
2022/01/02 00:39:11;;;;;;;;;;;11.80;99.90;;;;;;5037167;28;19921;-90
2022/01/02 00:41:42;;;;;;;;;;;11.80;99.90;;;;;;5037229;28;19925;-90
2022/01/02 00:44:12;;;;;;;;;;;11.70;99.90;;;;;;5036176;28;19921;-90
2022/01/02 00:46:45;;;;;;;;;;;11.60;99.90;;;;;;5036660;28;19921;-91
2022/01/02 00:49:12;;;;;;;;;;;11.50;99.90;;;;;;5037057;28;19932;-90
2022/01/02 00:51:47;;;;;;;;;;;11.60;99.90;;;;;;5036903;28;19925;-89
2022/01/02 00:54:17;;;;;;;;;;;11.90;99.90;;;;;;5036938;28;19928;-90
2022/01/02 00:56:45;;;;;;;;;;;11.60;99.90;;;;;;5036441;28;19929;-90
2022/01/02 00:59:16;;;;;;;;;;;11.00;99.90;;;;;;5036615;28;19928;-90
2022/01/02 01:01:48;;;;;;;;;;;11.80;99.90;;;;;;5036579;28;19921;-90
2022/01/02 01:04:16;;;;;;;;;;;11.70;99.90;;;;;;5036628;28;19921;-91
2022/01/02 01:06:46;;;;;;;;;;;11.90;99.90;;;;;;5036139;28;19948;-90
2022/01/02 01:09:13;;;;;;;;;;;9.70;99.90;;;;;;5036291;28;19921;-89
2022/01/02 01:11:42;;;;;;;;;;;11.60;99.90;;;;;;5035739;28;19927;-90
2022/01/02 01:14:09;;;;;;;;;;;11.60;99.90;;;;;;5035517;28;19943;-89
2022/01/02 01:16:36;;;;;;;;;;;11.60;99.90;;;;;;5035625;28;19928;-89
2022/01/02 01:19:03;;;;;;;;;;;11.60;99.90;;;;;;5035156;28;19921;-89
2022/01/02 01:21:30;;;;;;;;;;;11.50;99.90;;;;;;5035901;28;19925;-89
2022/01/02 01:23:57;;;;;;;;;;;11.50;99.90;;;;;;5036198;28;19929;-89
2022/01/02 01:26:24;;;;;;;;;;;11.80;99.90;;;;;;5034995;28;19921;-90
2022/01/02 01:28:52;;;;;;;;;;;11.60;99.90;;;;;;5035399;28;20386;-90
2022/01/02 01:31:19;;;;;;;;;;;11.60;99.90;;;;;;5035647;28;19992;-90
2022/01/02 01:33:46;;;;;;;;;;;11.50;99.90;;;;;;5035120;28;19921;-90
2022/01/02 01:36:13;;;;;;;;;;;11.60;99.90;;;;;;5035457;28;19940;-91
2022/01/02 01:38:39;;;;;;;;;;;11.70;99.90;;;;;;5034642;28;19928;-91
2022/01/02 01:41:07;;;;;;;;;;;11.50;99.90;;;;;;5034718;28;19961;-90
2022/01/02 01:43:40;;;;;;;;;;;11.40;99.90;;;;;;5034352;28;20363;-90
2022/01/02 01:46:08;;;;;;;;;;;11.50;99.90;;;;;;5034661;28;20354;-90
2022/01/02 01:48:35;;;;;;;;;;;11.80;99.90;;;;;;5034933;28;19925;-91
2022/01/02 01:51:02;;;;;;;;;;;11.60;99.90;;;;;;5034609;28;20379;-91
2022/01/02 01:53:29;;;;;;;;;;;11.40;99.90;;;;;;5034741;28;19929;-91
2022/01/02 01:55:56;;;;;;;;;;;11.40;99.90;;;;;;5043411;28;19921;-90
2022/01/02 01:58:23;;;;;;;;;;;11.40;99.90;;;;;;5045491;28;19921;-91
2022/01/02 02:00:50;;;;;;;;;;;11.30;99.90;;;;;;5046449;28;19944;-92
2022/01/02 02:03:18;;;;;;;;;;;11.40;99.90;;;;;;5039318;28;19927;-91
2022/01/02 02:05:47;;;;;;;;;;;11.30;99.90;;;;;;5035055;28;19925;-90
2022/01/02 02:08:13;;;;;;;;;;;11.40;99.90;;;;;;5034466;28;19921;-91
2022/01/02 02:10:45;;;;;;;;;;;11.60;99.90;;;;;;5034810;28;19925;-90
2022/01/02 02:13:12;;;;;;;;;;;11.60;99.90;;;;;;5034846;28;20367;-91
2022/01/02 02:15:39;;;;;;;;;;;11.70;99.90;;;;;;5034656;28;19925;-91
2022/01/02 02:18:06;;;;;;;;;;;11.60;99.90;;;;;;5034849;28;20398;-91
2022/01/02 02:20:36;;;;;;;;;;;11.50;99.90;;;;;;5034919;28;20444;-90
2022/01/02 02:23:03;;;;;;;;;;;11.60;99.90;;;;;;5034750;28;20290;-90
2022/01/02 02:25:31;;;;;;;;;;;10.10;99.90;;;;;;5034954;28;19921;-91
2022/01/02 02:28:00;;;;;;;;;;;11.30;99.90;;;;;;5035208;28;19925;-90
2022/01/02 02:30:27;;;;;;;;;;;11.30;99.90;;;;;;5034746;28;19921;-91
2022/01/02 02:32:55;;;;;;;;;;;11.40;99.90;;;;;;5034441;28;19928;-91
2022/01/02 02:35:22;;;;;;;;;;;11.20;99.90;;;;;;5034903;28;19964;-90
2022/01/02 02:37:50;;;;;;;;;;;10.20;99.90;;;;;;5035906;28;19936;-91
2022/01/02 02:40:18;;;;;;;;;;;11.60;99.90;;;;;;5038389;28;19927;-91
2022/01/02 02:42:49;;;;;;;;;;;11.50;99.90;;;;;;5038707;28;19925;-90
2022/01/02 02:51:03;;;;;;;;;;;11.60;99.90;;;;;;5038538;28;20394;-90
2022/01/02 02:53:31;;;;;;;;;;;11.60;99.90;;;;;;5038538;28;19925;-90
2022/01/02 02:55:58;;;;;;;;;;;11.90;99.90;;;;;;5038567;28;20346;-90
2022/01/02 02:58:41;;;;;;;;;;;11.70;99.90;;;;;;5038224;28;19921;-91
2022/01/02 03:01:08;;;;;;;;;;;11.40;99.90;;;;;;5038430;28;19928;-90
2022/01/02 03:03:35;;;;;;;;;;;11.50;99.90;;;;;;5038072;28;19921;-90
2022/01/02 03:06:02;;;;;;;;;;;11.30;99.90;;;;;;5038429;28;19925;-91
2022/01/02 03:08:31;;;;;;;;;;;11.20;99.90;;;;;;5038106;28;19932;-91
2022/01/02 03:10:58;;;;;;;;;;;11.20;99.90;;;;;;5038031;28;19921;-90
2022/01/02 03:13:25;;;;;;;;;;;11.40;99.90;;;;;;5037906;28;19921;-91
2022/01/02 03:15:51;;;;;;;;;;;11.40;99.90;;;;;;5038186;28;19928;-91
2022/01/02 03:18:18;;;;;;;;;;;11.20;99.90;;;;;;5037962;28;19928;-90
2022/01/02 03:20:45;;;;;;;;;;;11.20;99.90;;;;;;5038034;28;20359;-91
2022/01/02 03:23:12;;;;;;;;;;;11.20;99.90;;;;;;5037840;28;20385;-91
2022/01/02 03:25:40;;;;;;;;;;;10.20;99.90;;;;;;5037919;28;20390;-91
2022/01/02 03:28:07;;;;;;;;;;;11.20;99.90;;;;;;5037180;28;20367;-90
2022/01/02 03:30:34;;;;;;;;;;;11.50;99.90;;;;;;5037435;28;19936;-90
2022/01/02 03:33:01;;;;;;;;;;;10.80;99.90;;;;;;5038051;28;19944;-91
2022/01/02 03:35:28;;;;;;;;;;;11.00;99.90;;;;;;5037526;28;19928;-91
2022/01/02 03:37:55;;;;;;;;;;;10.90;99.90;;;;;;5037502;28;19921;-91
2022/01/02 03:40:22;;;;;;;;;;;11.20;99.90;;;;;;5037061;28;19921;-91
2022/01/02 03:42:50;;;;;;;;;;;10.90;99.90;;;;;;5037650;28;19921;-91
2022/01/02 03:45:17;;;;;;;;;;;10.90;99.90;;;;;;5043448;28;19921;-91
2022/01/02 03:47:44;;;;;;;;;;;11.00;99.90;;;;;;5045499;28;19920;-90
2022/01/02 03:50:11;;;;;;;;;;;10.80;99.90;;;;;;5044221;28;19924;-90
2022/01/02 03:52:38;;;;;;;;;;;10.70;99.90;;;;;;5040182;28;19976;-90
2022/01/02 03:55:05;;;;;;;;;;;10.10;99.90;;;;;;5037893;28;19928;-90
2022/01/02 03:57:32;;;;;;;;;;;10.70;99.90;;;;;;5037344;28;19928;-90
2022/01/02 04:00:01;;;;;;;;;;;10.60;99.90;;;;;;5037336;28;19921;-90
2022/01/02 04:02:27;;;;;;;;;;;10.90;99.90;;;;;;5037169;28;19921;-91
2022/01/02 04:04:54;;;;;;;;;;;10.60;99.90;;;;;;5037301;28;19920;-90
2022/01/02 04:07:21;;;;;;;;;;;10.60;99.90;;;;;;5036959;28;19921;-90
2022/01/02 04:09:48;;;;;;;;;;;10.30;99.90;;;;;;5037005;28;19921;-91
2022/01/02 04:12:15;;;;;;;;;;;10.60;99.90;;;;;;5037027;28;19921;-90
2022/01/02 04:14:42;;;;;;;;;;;10.70;99.90;;;;;;5036794;28;19928;-90
2022/01/02 04:17:10;;;;;;;;;;;8.50;99.90;;;;;;5036613;28;19921;-90
2022/01/02 04:19:37;;;;;;;;;;;10.60;99.90;;;;;;5037355;28;20356;-90
2022/01/02 04:22:04;;;;;;;;;;;10.50;99.90;;;;;;5036863;28;19925;-91
2022/01/02 04:24:31;;;;;;;;;;;10.40;99.90;;;;;;5036647;28;19988;-90
2022/01/02 04:26:58;;;;;;;;;;;10.70;99.90;;;;;;5036488;28;20360;-90
2022/01/02 04:29:24;;;;;;;;;;;10.60;99.90;;;;;;5036662;28;19928;-90
2022/01/02 04:31:51;;;;;;;;;;;10.50;99.90;;;;;;5036571;28;19928;-90
2022/01/02 04:34:20;;;;;;;;;;;10.70;99.90;;;;;;5036752;28;19921;-91
2022/01/02 04:36:46;;;;;;;;;;;10.60;99.90;;;;;;5036653;28;19928;-90
2022/01/02 04:39:13;;;;;;;;;;;10.50;99.90;;;;;;5036545;28;19932;-91
2022/01/02 04:41:40;;;;;;;;;;;10.50;99.90;;;;;;5036320;28;19983;-91
2022/01/02 04:44:08;;;;;;;;;;;10.50;99.90;;;;;;5036091;28;19927;-91
2022/01/02 04:46:35;;;;;;;;;;;10.50;99.90;;;;;;5036377;28;20368;-91
2022/01/02 04:49:02;;;;;;;;;;;10.50;99.90;;;;;;5036359;28;20379;-91
2022/01/02 04:51:30;;;;;;;;;;;10.40;99.90;;;;;;5036936;28;19925;-90
2022/01/02 04:53:57;;;;;;;;;;;10.40;99.90;;;;;;5036204;28;19928;-91
2022/01/02 04:56:26;;;;;;;;;;;10.30;99.90;;;;;;5036396;28;20495;-91
2022/01/02 04:58:53;;;;;;;;;;;10.40;99.90;;;;;;5037881;28;19928;-91
2022/01/02 05:01:20;;;;;;;;;;;10.20;99.90;;;;;;5037863;28;19924;-91
2022/01/02 05:03:47;;;;;;;;;;;10.70;99.90;;;;;;5037830;28;19921;-91
2022/01/02 05:06:14;;;;;;;;;;;9.20;99.90;;;;;;5038687;28;19932;-91
2022/01/02 05:08:44;;;;;;;;;;;9.10;99.90;;;;;;5036440;28;19928;-91
2022/01/02 05:11:11;;;;;;;;;;;10.10;99.90;;;;;;5035792;28;20415;-91
2022/01/02 05:13:38;;;;;;;;;;;10.10;99.90;;;;;;5035949;28;19928;-91
2022/01/02 05:16:05;;;;;;;;;;;10.20;99.90;;;;;;5036262;28;20398;-91
2022/01/02 05:18:32;;;;;;;;;;;10.10;99.90;;;;;;5035809;28;19971;-91
2022/01/02 05:20:59;;;;;;;;;;;10.10;99.90;;;;;;5036015;28;19984;-91
2022/01/02 05:23:29;;;;;;;;;;;10.20;99.90;;;;;;5035658;28;19944;-91
2022/01/02 05:25:57;;;;;;;;;;;10.00;99.90;;;;;;5035644;28;19972;-91
2022/01/02 05:28:24;;;;;;;;;;;10.00;99.90;;;;;;5035828;28;19925;-91
2022/01/02 05:30:52;;;;;;;;;;;10.30;99.90;;;;;;5035826;28;19928;-91
2022/01/02 05:33:19;;;;;;;;;;;10.20;99.90;;;;;;5036027;28;19921;-91
2022/01/02 05:35:45;;;;;;;;;;;9.90;99.90;;;;;;5045309;28;19925;-91
2022/01/02 05:38:12;;;;;;;;;;;9.40;99.90;;;;;;5046607;28;19928;-91
2022/01/02 05:40:39;;;;;;;;;;;9.90;99.90;;;;;;5048342;28;19927;-91
2022/01/02 05:43:11;;;;;;;;;;;9.90;99.90;;;;;;5038177;28;19921;-91
2022/01/02 05:45:38;;;;;;;;;;;9.90;99.90;;;;;;5035461;28;19928;-91
2022/01/02 05:48:05;;;;;;;;;;;9.90;99.90;;;;;;5035424;28;19925;-91
2022/01/02 05:50:32;;;;;;;;;;;10.00;99.90;;;;;;5035613;28;19921;-91
2022/01/02 05:52:59;;;;;;;;;;;9.90;99.90;;;;;;5034993;28;19920;-90
2022/01/02 05:55:26;;;;;;;;;;;9.90;99.90;;;;;;5035213;28;19921;-91
2022/01/02 05:57:53;;;;;;;;;;;10.00;99.90;;;;;;5034608;28;20300;-91
2022/01/02 06:00:21;;;;;;;;;;;10.30;99.90;;;;;;5035296;28;19975;-91
2022/01/02 06:02:48;;;;;;;;;;;10.10;99.90;;;;;;5035010;28;19921;-91
2022/01/02 06:05:15;;;;;;;;;;;10.10;99.90;;;;;;5034795;28;20035;-91
2022/01/02 06:07:42;;;;;;;;;;;10.50;99.90;;;;;;5034791;28;20275;-91
2022/01/02 06:10:09;;;;;;;;;;;10.10;99.90;;;;;;5034822;28;20011;-91
2022/01/02 06:12:36;;;;;;;;;;;10.00;99.90;;;;;;5033224;28;19921;-91
2022/01/02 06:15:03;;;;;;;;;;;9.90;99.90;;;;;;5034810;28;20294;-91
2022/01/02 06:17:31;;;;;;;;;;;10.00;99.90;;;;;;5034764;28;19931;-90
2022/01/02 06:19:58;;;;;;;;;;;10.20;99.90;;;;;;5034937;28;19921;-90
2022/01/02 06:22:25;;;;;;;;;;;9.80;99.90;;;;;;5034848;28;19925;-91
2022/01/02 06:24:52;;;;;;;;;;;9.70;99.90;;;;;;5034838;28;19990;-90
2022/01/02 06:27:19;;;;;;;;;;;9.70;99.90;;;;;;5035005;28;19921;-90
2022/01/02 06:29:46;;;;;;;;;;;9.80;99.90;;;;;;5035183;28;19921;-91
2022/01/02 06:32:13;;;;;;;;;;;9.70;99.90;;;;;;5034607;28;20379;-91
2022/01/02 06:34:44;;;;;;;;;;;9.80;99.90;;;;;;5034999;28;19921;-90
2022/01/02 06:37:11;;;;;;;;;;;8.10;99.90;;;;;;5034428;28;19972;-91
2022/01/02 06:39:37;;;;;;;;;;;9.50;99.90;;;;;;5034336;28;20341;-91
2022/01/02 06:42:05;;;;;;;;;;;9.40;99.90;;;;;;5034351;28;19975;-90
2022/01/02 06:44:32;;;;;;;;;;;9.60;99.90;;;;;;5034110;28;20272;-90
2022/01/02 06:46:58;;;;;;;;;;;9.40;99.90;;;;;;5034488;28;19927;-90
2022/01/02 06:49:25;;;;;;;;;;;9.30;99.90;;;;;;5034614;28;19925;-90
2022/01/02 06:51:56;;;;;;;;;;;9.40;99.90;;;;;;5034582;28;19925;-91
2022/01/02 06:54:23;;;;;;;;;;;9.30;99.90;;;;;;5034380;28;19921;-91
2022/01/02 06:56:50;;;;;;;;;;;9.20;99.90;;;;;;5034349;28;19921;-91
2022/01/02 06:59:17;;;;;;;;;;;7.90;99.90;;;;;;5034400;28;19925;-91
2022/01/02 07:01:44;;;;;;;;;;;9.20;99.90;;;;;;5034348;28;19967;-90
2022/01/02 07:04:10;;;;;;;;;;;7.30;99.90;;;;;;5034598;28;19921;-91
2022/01/02 07:06:37;;;;;;;;;;;8.90;99.90;;;;;;5034306;28;19928;-90
2022/01/02 07:09:06;;;;;;;;;;;9.00;99.90;;;;;;5034643;28;19924;-90
2022/01/02 07:11:32;;;;;;;;;;;8.90;99.90;;;;;;5034205;28;20338;-91
2022/01/02 07:13:59;;;;;;;;;;;8.60;99.90;;;;;;5034365;28;19921;-90
2022/01/02 07:16:26;;;;;;;;;;;8.90;99.90;;;;;;5034537;28;19920;-89
2022/01/02 07:18:53;;;;;;;;;;;8.90;99.90;;;;;;5034636;28;19982;-90
2022/01/02 07:21:20;;;;;;;;;;;8.90;99.90;;;;;;5034473;28;20386;-90
2022/01/02 07:23:48;;;;;;;;;;;8.80;99.90;;;;;;5035358;28;19920;-90
2022/01/02 07:26:16;;;;;;;;;;;8.80;99.90;;;;;;5049730;28;20027;-89
2022/01/02 07:28:43;;;;;;;;;;;8.90;99.90;;;;;;5049843;28;19921;-90
2022/01/02 07:31:10;;;;;;;;;;;8.80;99.90;;;;;;5048592;28;20353;-90
2022/01/02 07:33:37;;;;;;;;;;;8.70;99.90;;;;;;5037939;28;19925;-91
2022/01/02 07:36:04;;;;;;;;;;;8.70;99.90;;;;;;5037756;28;19928;-90
2022/01/02 07:38:30;;;;;;;;;;;8.70;99.90;;;;;;5037542;28;19921;-90
2022/01/02 07:40:57;;;;;;;;;;;8.80;99.90;;;;;;5037426;28;19925;-90
2022/01/02 07:43:25;;;;;;;;;;;8.50;99.90;;;;;;5037755;28;19928;-91
2022/01/02 07:45:52;;;;;;;;;;;8.50;99.90;;;;;;5036665;28;19921;-91
2022/01/02 07:48:19;;;;;;;;;;;8.50;99.90;;;;;;5037404;28;20264;-90
2022/01/02 07:50:46;;;;;;;;;;;8.40;99.90;;;;;;5037985;28;19971;-90
2022/01/02 07:53:13;;;;;;;;;;;8.50;99.90;;;;;;5038130;28;19921;-91
2022/01/02 07:55:39;;;;;;;;;;;8.60;99.90;;;;;;5037600;28;19944;-90
2022/01/02 07:58:06;;;;;;;;;;;8.50;99.90;;;;;;5037302;28;19983;-90
2022/01/02 08:00:35;;;;;;;;;;;8.70;99.90;;;;;;5037089;28;19928;-90
2022/01/02 08:03:01;;;;;;;;;;;8.60;99.90;;;;;;5037419;28;20394;-91
2022/01/02 08:05:28;;;;;;;;;;;8.70;99.90;;;;;;5037496;28;19921;-90
2022/01/02 08:07:57;;;;;;;;;;;8.40;99.90;;;;;;5036657;28;20295;-91
2022/01/02 08:10:23;;;;;;;;;;;8.40;99.90;;;;;;5037433;28;19925;-90
2022/01/02 08:12:50;;;;;;;;;;;7.90;99.90;;;;;;5036883;28;19943;-90
2022/01/02 08:15:17;;;;;;;;;;;8.50;99.90;;;;;;5037263;28;19921;-91
2022/01/02 08:17:45;;;;;;;;;;;8.80;99.90;;;;;;5037003;28;19929;-90
2022/01/02 08:20:13;;;;;;;;;;;8.30;99.90;;;;;;5036687;28;20386;-91
2022/01/02 08:22:40;;;;;;;;;;;8.60;99.90;;;;;;5037520;28;19921;-90
2022/01/02 08:25:07;;;;;;;;;;;8.40;99.90;;;;;;5036728;28;19921;-91
2022/01/02 08:27:34;;;;;;;;;;;8.40;99.90;;;;;;5037236;28;19928;-91
2022/01/02 08:30:01;;;;;;;;;;;8.70;99.90;;;;;;5036850;28;19968;-90
2022/01/02 08:32:31;;;;;;;;;;;8.40;99.90;;;;;;5036787;28;20291;-90
2022/01/02 08:34:59;;;;;;;;;;;8.60;99.90;;;;;;5036324;28;20349;-90
2022/01/02 08:37:26;;;;;;;;;;;8.40;99.90;;;;;;5036537;28;19925;-90
2022/01/02 08:39:52;;;;;;;;;;;8.30;99.90;;;;;;5036402;28;20437;-90
2022/01/02 08:42:19;;;;;;;;;;;8.20;99.90;;;;;;5036630;28;19928;-90
2022/01/02 08:44:46;;;;;;;;;;;8.30;99.90;;;;;;5036348;28;19986;-90
2022/01/02 08:47:13;;;;;;;;;;;8.10;99.90;;;;;;5036532;28;19947;-90
2022/01/02 08:49:40;;;;;;;;;;;8.10;99.90;;;;;;5036480;28;20371;-90
2022/01/02 08:52:08;;;;;;;;;;;8.40;99.90;;;;;;5036451;28;19921;-90
2022/01/02 08:54:35;;;;;;;;;;;8.10;99.90;;;;;;5036089;28;20433;-90
2022/01/02 08:57:03;;;;;;;;;;;8.30;99.90;;;;;;5036169;28;19921;-91
2022/01/02 08:59:30;;;;;;;;;;;8.30;99.90;;;;;;5036565;28;19964;-90
2022/01/02 09:01:57;;;;;;;;;;;8.30;99.90;;;;;;5036238;28;19925;-90
2022/01/02 09:04:24;;;;;;;;;;;8.60;99.90;;;;;;5035904;28;19921;-91
2022/01/02 09:06:51;;;;;;;;;;;8.60;99.90;;;;;;5035728;28;19921;-90
2022/01/02 09:09:19;;;;;;;;;;;8.70;99.90;;;;;;5035716;28;19924;-91
2022/01/02 09:11:46;;;;;;;;;;;8.70;99.90;;;;;;5038964;28;20375;-90
2022/01/02 09:14:13;;;;;;;;;;;8.50;99.90;;;;;;5036418;28;19928;-91
2022/01/02 09:16:40;;;;;;;;;;;8.60;99.90;;;;;;5043758;28;19921;-90
2022/01/02 09:19:07;;;;;;;;;;;8.60;99.90;;;;;;5044534;28;19975;-90
2022/01/02 09:21:34;;;;;;;;;;;8.90;99.90;;;;;;5045728;28;19944;-90
2022/01/02 09:24:01;;;;;;;;;;;9.10;99.90;;;;;;5037241;28;19921;-91
2022/01/02 09:26:29;;;;;;;;;;;9.50;99.90;;;;;;5037086;28;19921;-91
2022/01/02 09:28:56;;;;;;;;;;;9.10;99.90;;;;;;5035412;28;19986;-90
2022/01/02 09:31:23;;;;;;;;;;;9.20;99.90;;;;;;5035802;28;19925;-90
2022/01/02 09:36:31;;;;;;;;;;;9.20;99.90;;;;;;5034949;28;19921;-90
2022/01/02 09:38:58;;;;;;;;;;;9.10;99.90;;;;;;5034606;28;20434;-90
2022/01/02 09:41:25;;;;;;;;;;;9.00;99.90;;;;;;5035073;28;19928;-91
2022/01/02 09:43:53;;;;;;;;;;;9.20;99.90;;;;;;5035196;28;19967;-90
2022/01/02 09:46:21;;;;;;;;;;;9.10;99.90;;;;;;5033475;28;19921;-91
2022/01/02 09:48:48;;;;;;;;;;;9.10;99.90;;;;;;5036748;28;19921;-90
2022/01/02 09:51:16;;;;;;;;;;;9.40;99.90;;;;;;5034370;28;19921;-90
2022/01/02 09:53:47;;;;;;;;;;;9.20;99.90;;;;;;5034726;28;19921;-90
2022/01/02 09:56:14;;;;;;;;;;;11.50;99.90;;;;;;5034737;28;19928;-90
2022/01/02 09:58:43;;;;;;;;;;;9.40;99.90;;;;;;5034994;28;19944;-89
2022/01/02 10:01:15;;;;;;;;;;;9.40;99.90;;;;;;5034438;28;19927;-89
2022/01/02 10:03:42;;;;;;;;;;;9.40;99.90;;;;;;5034763;28;19983;-90
2022/01/02 10:06:09;;;;;;;;;;;9.00;99.90;;;;;;5033900;28;19967;-90
2022/01/02 10:08:36;;;;;;;;;;;9.50;99.90;;;;;;5034669;28;19921;-90
2022/01/02 10:11:05;;;;;;;;;;;9.70;99.90;;;;;;5035330;28;19925;-90
2022/01/02 10:13:42;;;;;;;;;;;9.80;99.90;;;;;;5035137;28;19921;-90
2022/01/02 10:16:30;;;;;;;;;;;9.80;99.90;;;;;;5035052;28;19921;-90
2022/01/02 10:19:00;;;;;;;;;;;9.40;99.90;;;;;;5035296;28;20015;-90
2022/01/02 10:21:28;;;;;;;;;;;10.00;99.90;;;;;;5035665;28;20371;-90
2022/01/02 10:24:09;;;;;;;;;;;9.90;99.90;;;;;;5034888;28;19921;-89
2022/01/02 10:26:36;;;;;;;;;;;10.20;99.90;;;;;;5034841;28;19921;-90
2022/01/02 10:29:09;;;;;;;;;;;9.50;99.90;;;;;;5034739;28;19921;-90
2022/01/02 10:31:38;;;;;;;;;;;10.10;99.90;;;;;;5035425;28;19921;-90
2022/01/02 10:34:05;;;;;;;;;;;10.20;99.90;;;;;;5035415;28;19940;-90
2022/01/02 10:36:33;;;;;;;;;;;10.30;99.90;;;;;;5035022;28;19991;-90
2022/01/02 10:39:01;;;;;;;;;;;10.50;99.90;;;;;;5034599;28;19921;-90
2022/01/02 10:41:33;;;;;;;;;;;11.40;99.90;;;;;;5034617;28;19993;-89
2022/01/02 10:44:15;;;;;;;;;;;9.70;99.90;;;;;;5035382;28;20371;-90
2022/01/02 10:47:04;;;;;;;;;;;10.80;99.90;;;;;;5036348;28;19928;-90
2022/01/02 10:49:46;;;;;;;;;;;10.40;99.90;;;;;;5034645;28;19945;-90
2022/01/02 10:52:20;;;;;;;;;;;10.50;99.90;;;;;;5035263;28;19921;-90
2022/01/02 10:54:48;;;;;;;;;;;11.00;99.90;;;;;;5034561;28;20378;-91
2022/01/02 10:57:15;;;;;;;;;;;10.40;99.90;;;;;;5036223;28;19921;-91
2022/01/02 10:59:43;;;;;;;;;;;10.60;99.90;;;;;;5036978;28;19921;-91
2022/01/02 11:02:13;;;;;;;;;;;10.70;99.90;;;;;;5038236;28;19931;-90
2022/01/02 11:04:45;;;;;;;;;;;10.80;99.90;;;;;;5038863;28;19944;-91
2022/01/02 11:07:13;;;;;;;;;;;10.60;99.90;;;;;;5045644;28;19963;-90
2022/01/02 11:09:40;;;;;;;;;;;12.40;99.90;;;;;;5046088;28;19921;-91
2022/01/02 11:12:07;;;;;;;;;;;11.10;99.90;;;;;;5043943;28;19937;-91
2022/01/02 11:14:35;;;;;;;;;;;10.80;99.90;;;;;;5039037;28;19921;-91
2022/01/02 11:17:01;;;;;;;;;;;11.10;99.90;;;;;;5038580;28;19921;-91
2022/01/02 11:19:30;;;;;;;;;;;10.80;99.90;;;;;;5038490;28;19928;-90
2022/01/02 11:21:58;;;;;;;;;;;10.80;99.90;;;;;;5038262;28;20450;-88
2022/01/02 11:24:28;;;;;;;;;;;10.80;99.90;;;;;;5038180;28;19943;-89
2022/01/02 11:26:57;;;;;;;;;;;10.80;99.90;;;;;;5037553;28;19925;-90
2022/01/02 11:29:26;;;;;;;;;;;10.80;99.90;;;;;;5037909;28;19920;-90
2022/01/02 11:31:53;;;;;;;;;;;10.90;99.90;;;;;;5040505;28;19928;-89
2022/01/02 11:34:24;;;;;;;;;;;10.80;99.90;;;;;;5038342;28;19921;-89
2022/01/02 11:36:52;;;;;;;;;;;10.90;99.90;;;;;;5038086;28;19990;-90
2022/01/02 11:39:19;;;;;;;;;;;11.40;99.90;;;;;;5038787;28;19920;-91
2022/01/02 11:41:48;;;;;;;;;;;11.10;99.90;;;;;;5037699;28;20417;-90
2022/01/02 11:44:15;;;;;;;;;;;10.90;99.90;;;;;;5038424;28;19921;-92
2022/01/02 11:46:49;;;;;;;;;;;11.00;99.90;;;;;;5038379;28;19921;-90
2022/01/02 11:49:20;;;;;;;;;;;11.10;99.90;;;;;;5036768;28;19921;-89
2022/01/02 11:52:01;;;;;;;;;;;11.30;99.90;;;;;;5038013;28;20003;-90
2022/01/02 11:54:48;;;;;;;;;;;11.10;99.90;;;;;;5039934;28;20276;-90
2022/01/02 11:57:33;;;;;;;;;;;11.40;99.90;;;;;;5037614;28;20017;-90
2022/01/02 12:00:00;;;;;;;;;;;11.20;99.90;;;;;;5037239;28;20324;-90
2022/01/02 12:02:37;;;;;;;;;;;10.90;99.90;;;;;;5036746;28;19939;-90
2022/01/02 12:05:12;;;;;;;;;;;11.10;99.90;;;;;;5038057;28;19935;-90
2022/01/02 12:07:54;;;;;;;;;;;11.00;99.90;;;;;;5037566;28;19921;-90
2022/01/02 12:10:23;;;;;;;;;;;11.40;99.90;;;;;;5037803;28;19975;-89
2022/01/02 12:13:10;;;;;;;;;;;11.70;99.90;;;;;;5036899;28;19921;-89
2022/01/02 12:15:57;;;;;;;;;;;11.20;99.90;;;;;;5036540;28;19998;-89
2022/01/02 12:18:27;;;;;;;;;;;10.70;99.90;;;;;;5038190;28;19927;-90
2022/01/02 12:21:09;;;;;;;;;;;11.20;99.90;;;;;;5037944;28;19921;-91
2022/01/02 12:23:53;;;;;;;;;;;11.30;99.90;;;;;;5038192;28;19948;-90
2022/01/02 12:26:21;;;;;;;;;;;11.20;99.90;;;;;;5036529;28;19921;-90
2022/01/02 12:28:56;;;;;;;;;;;12.40;99.90;;;;;;5036065;28;19928;-90
2022/01/02 12:31:24;;;;;;;;;;;11.10;99.90;;;;;;5036726;28;19921;-90
2022/01/02 12:33:52;;;;;;;;;;;11.30;99.90;;;;;;5036921;28;19967;-91
2022/01/02 12:36:19;;;;;;;;;;;11.40;99.90;;;;;;5036002;28;19921;-89
2022/01/02 12:38:47;;;;;;;;;;;11.40;99.90;;;;;;5036065;28;20371;-89
2022/01/02 12:41:15;;;;;;;;;;;11.30;99.90;;;;;;5035913;28;20371;-90
2022/01/02 12:43:50;;;;;;;;;;;11.40;99.90;;;;;;5036220;28;20425;-89
2022/01/02 12:46:31;;;;;;;;;;;11.70;99.90;;;;;;5036357;28;19932;-90
2022/01/02 12:48:58;;;;;;;;;;;11.60;99.90;;;;;;5037084;28;19929;-91
2022/01/02 12:51:28;;;;;;;;;;;11.40;99.90;;;;;;5035727;28;20371;-91
2022/01/02 12:54:02;;;;;;;;;;;11.30;99.90;;;;;;5036015;28;19928;-89
2022/01/02 12:56:38;;;;;;;;;;;11.50;99.90;;;;;;5043979;28;19924;-91
2022/01/02 12:59:15;;;;;;;;;;;11.50;99.90;;;;;;5047006;28;20383;-91
2022/01/02 13:01:52;;;;;;;;;;;11.40;99.90;;;;;;5046309;28;20371;-90
2022/01/02 13:04:21;;;;;;;;;;;11.30;99.90;;;;;;5037317;28;20386;-91
2022/01/02 13:06:48;;;;;;;;;;;11.20;99.90;;;;;;5037076;28;19927;-90
2022/01/02 13:09:24;;;;;;;;;;;11.00;99.90;;;;;;5036520;28;20271;-90
2022/01/02 13:11:53;;;;;;;;;;;11.10;99.90;;;;;;5036428;28;19921;-90
2022/01/02 13:14:30;;;;;;;;;;;10.90;99.90;;;;;;5035453;28;19943;-90
2022/01/02 13:16:57;;;;;;;;;;;10.70;99.90;;;;;;5036379;28;20295;-91
2022/01/02 13:19:29;;;;;;;;;;;10.80;99.90;;;;;;5035659;28;20373;-89
2022/01/02 13:21:57;;;;;;;;;;;10.60;99.90;;;;;;5018320;28;20375;-91
2022/01/02 13:24:24;;;;;;;;;;;10.30;99.90;;;;;;5035610;28;19921;-91
2022/01/02 13:26:53;;;;;;;;;;;10.60;99.90;;;;;;5035077;28;19928;-91
2022/01/02 13:29:22;;;;;;;;;;;10.30;99.90;;;;;;5037054;28;19921;-88
2022/01/02 13:31:49;;;;;;;;;;;9.70;99.90;;;;;;5035747;28;19921;-91
2022/01/02 13:34:22;;;;;;;;;;;10.20;99.90;;;;;;5037196;28;19921;-91
2022/01/02 13:36:56;;;;;;;;;;;10.20;99.90;;;;;;5035477;28;19920;-91
2022/01/02 13:39:38;;;;;;;;;;;10.20;99.90;;;;;;5035310;28;19921;-90
2022/01/02 13:42:07;;;;;;;;;;;10.20;99.90;;;;;;5035308;28;20236;-90
2022/01/02 13:44:40;;;;;;;;;;;10.20;99.90;;;;;;5035473;28;19928;-91
2022/01/02 13:47:10;;;;;;;;;;;10.10;99.90;;;;;;5034978;28;20331;-90
2022/01/02 13:49:41;;;;;;;;;;;10.30;99.90;;;;;;5035887;28;20344;-91
2022/01/02 13:52:08;;;;;;;;;;;10.00;99.90;;;;;;5034532;28;19960;-90
2022/01/02 13:54:35;;;;;;;;;;;9.80;99.90;;;;;;5035150;28;19921;-90
2022/01/02 13:57:04;;;;;;;;;;;10.00;99.90;;;;;;5035175;28;19921;-89
2022/01/02 13:59:32;;;;;;;;;;;10.40;99.90;;;;;;5035565;28;20002;-90
2022/01/02 14:01:59;;;;;;;;;;;9.70;99.90;;;;;;5035334;28;19921;-90
2022/01/02 14:04:26;;;;;;;;;;;9.90;99.90;;;;;;5034555;28;20356;-90
2022/01/02 14:06:56;;;;;;;;;;;10.20;99.90;;;;;;5034245;28;19928;-90
2022/01/02 14:09:22;;;;;;;;;;;9.90;99.90;;;;;;5036197;28;19921;-90
2022/01/02 14:11:53;;;;;;;;;;;9.90;99.90;;;;;;5035920;28;19928;-91
2022/01/02 14:14:23;;;;;;;;;;;9.90;99.90;;;;;;5035739;28;19927;-90
2022/01/02 14:17:01;;;;;;;;;;;9.90;99.90;;;;;;5035322;28;19983;-90
2022/01/02 14:19:28;;;;;;;;;;;9.90;99.90;;;;;;5034651;28;19925;-90
2022/01/02 14:21:55;;;;;;;;;;;10.10;99.90;;;;;;5035223;28;19929;-89
2022/01/02 14:24:23;;;;;;;;;;;9.90;99.90;;;;;;5035285;28;20282;-90
2022/01/02 14:26:50;;;;;;;;;;;10.10;99.90;;;;;;5035425;28;19927;-90
2022/01/02 14:29:22;;;;;;;;;;;10.30;99.90;;;;;;5035530;28;19966;-89
2022/01/02 14:31:49;;;;;;;;;;;9.70;99.90;;;;;;5035064;28;19988;-90
2022/01/02 14:34:18;;;;;;;;;;;9.80;99.90;;;;;;5034995;28;19927;-89
2022/01/02 14:36:45;;;;;;;;;;;9.50;99.90;;;;;;5034433;28;19921;-89
2022/01/02 14:39:14;;;;;;;;;;;9.70;99.90;;;;;;5033971;28;19925;-90